INFORMACIÓN METAR y TAF
METAR FOR SCRM
ADDS - METARS form results

(0711 UTC 12 November 2019)
Data provider http://aviationweather.gov/metar/data/
 
METAR text: SCRM 120700Z 25026KT 2000 BR OVC002 M00/M01 Q0991 NOSIG
Conditions at: SCRM (TENIENTE R MARSH, CL) observed 0700 UTC 12 November 2019
Temperature: 0.0°C (32°F)
Dewpoint: -1.0°C (30°F) [RH = 93%]
Pressure (altimeter): 29.26 inches Hg (991.0 mb)
Winds: from the WSW (250 degrees) at 30 MPH (26 knots; 13.4 m/s)
Visibility: 1.24 miles (2.00 km)
Ceiling: 200 feet AGL
Clouds: overcast cloud deck at 200 feet AGL
Weather: BR  (mist)

 MAPA DE AEROPUERTO

 INFORMACIÓN DE PISTA
Pista 11 Longitud 4238 ft Ancho 125 ft
Elevación 142 ft Umbral desplazado 0 ft Rumbo de pista 122
Pista 29 Longitud 4238 ft Ancho 125 ft
Elevación 127 ft Umbral desplazado 0 ft Rumbo de pista 302

 FRECUANCIAS DEL AEROPUERTO
Tipo APP Nombre MARSH APP Frecuencia 118.1 MHZ
Tipo TWR Nombre TWR Frecuencia 118.1 MHZ

 RADIO AYUDAS DEL AEROPUERTO
Tipo VOR-DME Nombre Isla Rey Jorge Frecuencia 113300 KHZ
Tipo NDB Nombre Isla Rey Jorge Frecuencia 360 KHZ